Historyczne dane pomiarowe

Dodano dane terminowe – wersja testowa.

Dane z okresu 1951-2019

Wersja bazy: 1.34 [2019-03-16, lista zmian], aktualizacja planowana na 2019-04-15

Dane meteo z obszaru Polski uzyskane na podstawie danych udostępnionych przez Instytut Meteorologii i Gospodarki Wodnej – Państwowy Instytut Badawczy.

 

Wybierz Datę:    

       

TemperaturaWilgotnośćWiatrCiśnienieOpadyŚniegCzas trwania zjawisk
 Stacja t tx tn tng RH VA  wxwx mslp ppp RRR   cm mm wxwxwxwxwxwxwx
1964-01-17 -4.7 -0.7-16.1--- 8.0 3.3---- 0.3-- 1---------
1964-01-18 -0.6 0.0 -1.0--- 8.0 6.0---- 0.0-- 2---------
1964-01-19 -1.2 -0.4 -2.3--- 8.0 5.7---- 0.2-- 2---------
1964-01-20 -1.7 -0.3 -2.8--- 8.0 4.0---- 0.0-- 3---------
1964-01-21 -3.4 -2.1 -7.5--- 8.0 14.7---- 0.6-- 3---------
1964-01-22 1.1 2.0 -2.4--- 7.3 14.3---- 0.4-- 3---------
1964-01-23 -1.5 1.1 -2.7--- 4.7 6.3---- 0.0-- 2---------
1964-01-24 -0.3 0.5 -4.6--- 7.7 11.0---- 0.4-- 2---------
1964-01-25 -0.7 1.2 -1.8--- 6.0 12.0---- 0.0-- 3---------
1964-01-26 -4.0 -1.7 -8.1--- 3.3 9.7---- 0.6-- 3---------
1964-01-27 -5.1 -1.1 -7.2--- 5.3 16.0---- 0.0-- 3---------
1964-01-28 -9.7 -5.8-13.5--- 2.7 4.0---- 0.0-- 3---------
1964-01-29 -6.9 -5.0-11.0--- 4.7 5.0---- 0.0-- 3---------
1964-01-30 -2.6 -0.5 -6.6--- 5.3 6.0---- 0.0-- 3---------
1964-01-31 -2.2 0.7 -8.6--- 7.3 5.3---- 0.0-- 3---------
1964-02-01 0.7 1.9 -0.3--- 8.0 9.0---- 1.4-- 3---------
1964-02-02 0.9 2.1 0.4--- 8.0 8.0---- 2.5-- 2---------
1964-02-03 -0.7 0.7 -1.1--- 8.0 6.0---- 0.0-- 1---------
1964-02-04 0.5 1.2 -2.7--- 7.0 7.7---- 2.9-- 1---------
1964-02-05 -1.4 1.1 -2.5--- 5.7 12.3---- 0.2-- 2---------
1964-02-06 -5.0 -1.9 -6.7--- 5.3 9.3---- 0.0-- 3---------
1964-02-07 -6.2 -2.8 -8.6--- 6.0 6.0---- 0.0-- 4---------
1964-02-08 -0.2 0.5 -9.5--- 8.0 7.0---- 0.0-- 4---------
1964-02-09 -8.9 1.1-14.7--- 4.0 5.7---- 0.0-- 4---------
1964-02-10-12.0-11.0-18.7--- 5.7 3.7---- 2.0-- 4---------
1964-02-11 -5.0 0.2-11.0--- 8.0 10.0---- 1.6-- 9---------
1964-02-12 -8.5 -6.0-14.1--- 7.7 5.3---- 1.9-- 13---------
1964-02-13 -9.4 -5.7-11.5--- 8.0 6.7---- 0.6-- 20---------
1964-02-14-14.8 -9.8-18.4--- 4.7 2.0---- 0.0-- 23---------
1964-02-15-16.9-12.8-23.6--- 1.0 0.0---- 0.0-- 23---------
178.2 ms

 

Źródłem pochodzenia danych jest Instytut Meteorologii i Gospodarki Wodnej – Państwowy Instytut Badawczy. Dane Instytutu Meteorologii i Gospodarki Wodnej – Państwowego Instytutu Badawczego zostały przetworzone.

Dane źródłowe można odnaleźć na stronie https://dane.imgw.pl